This is the latest recevied weather packets stored in our database for station/object WP3OF-5. If no packets are shown the sender has not sent any weather packets the latest 10 day(s).
| Time | Temp. | Humidity | Pressure | Rain* | Wind** | Luminosity | Snow |
|---|---|---|---|---|---|---|---|
| 1777817450 | 29.44° C | 62% | 1018.7 hPa | 0 mm | - | - | - |
| 1777814723 | 28.89° C | 64% | 1018.7 hPa | 0 mm | - | - | - |
| 1777809876 | 22.78° C | 88% | 1018.2 hPa | 0 mm | - | - | - |
| 1777809574 | 22.22° C | 90% | 1018.4 hPa | 0 mm | - | - | - |
| 1777805944 | 19.44° C | 98% | 1017.7 hPa | 0 mm | - | - | - |
| 1777804431 | 18.33° C | 97% | 1017.4 hPa | 0 mm | - | - | - |
| 1777804128 | 18.89° C | 97% | 1017.3 hPa | 0 mm | - | - | - |
| 1777803520 | 18.89° C | 97% | 1017.3 hPa | 0 mm | - | - | - |
| 1777802915 | 18.89° C | 98% | 1017.2 hPa | 0 mm | - | - | - |
| 1777802310 | 18.89° C | 97% | 1017 hPa | 0 mm | - | - | - |
| 1777801706 | 18.89° C | 97% | 1016.8 hPa | 0 mm | - | - | - |
| 1777801099 | 18.89° C | 97% | 1017 hPa | 0 mm | - | - | - |
| 1777800796 | 18.89° C | 97% | 1016.6 hPa | 0 mm | - | - | - |
| 1777800491 | 18.33° C | 97% | 1016.8 hPa | 0 mm | - | - | - |
| 1777800188 | 18.33° C | 97% | 1016.8 hPa | 0 mm | - | - | - |
| 1777799888 | 18.33° C | 97% | 1016.9 hPa | 0 mm | - | - | - |
| 1777799586 | 18.33° C | 97% | 1016.7 hPa | 0 mm | - | - | - |
| 1777799282 | 18.89° C | 97% | 1017.1 hPa | 0 mm | - | - | - |
| 1777798978 | 18.89° C | 97% | 1016.6 hPa | 0 mm | - | - | - |
| 1777798674 | 18.89° C | 97% | 1017 hPa | 0 mm | - | - | - |
| 1777798370 | 18.89° C | 97% | 1016.7 hPa | 0 mm | - | - | - |
| 1777797463 | 18.89° C | 96% | 1016.9 hPa | 0 mm | - | - | - |
| 1777797160 | 18.89° C | 96% | 1016.7 hPa | 0 mm | - | - | - |
| 1777796856 | 18.89° C | 96% | 1016.7 hPa | 0 mm | - | - | - |
| 1777796553 | 18.89° C | 96% | 1016.9 hPa | 0 mm | - | - | - |
* Rain latest hour (hover to see other rain measurements)
** Current wind speed in m/s (hover to see current wind gust speed)